sensor_id;sensor_type;location;lat;lon;timestamp;pressure;altitude;pressure_sealevel;temperature;humidity
75438;BME280;64015;49.392;15.582;2022-12-18T00:01:24;96959.13;;;-9.00;100.00
75438;BME280;64015;49.392;15.582;2022-12-18T00:03:50;96954.81;;;-9.11;100.00
75438;BME280;64015;49.392;15.582;2022-12-18T00:06:17;96962.69;;;-9.25;100.00
75438;BME280;64015;49.392;15.582;2022-12-18T00:08:43;96957.84;;;-9.28;100.00
75438;BME280;64015;49.392;15.582;2022-12-18T00:11:15;96961.41;;;-9.42;100.00
75438;BME280;64015;49.392;15.582;2022-12-18T00:13:42;96952.00;;;-9.52;100.00
75438;BME280;64015;49.392;15.582;2022-12-18T00:16:11;96961.41;;;-9.53;100.00
75438;BME280;64015;49.392;15.582;2022-12-18T00:18:37;96957.69;;;-9.60;100.00
75438;BME280;64015;49.392;15.582;2022-12-18T00:21:05;96963.34;;;-9.67;98.78
75438;BME280;64015;49.392;15.582;2022-12-18T00:23:32;96966.81;;;-9.68;99.25
75438;BME280;64015;49.392;15.582;2022-12-18T00:26:03;96965.66;;;-9.75;98.92
75438;BME280;64015;49.392;15.582;2022-12-18T00:28:29;96975.88;;;-9.75;98.92
75438;BME280;64015;49.392;15.582;2022-12-18T00:31:06;96966.09;;;-9.82;98.75
75438;BME280;64015;49.392;15.582;2022-12-18T00:33:32;96983.28;;;-9.84;96.71
75438;BME280;64015;49.392;15.582;2022-12-18T00:36:10;96983.03;;;-9.92;99.16
75438;BME280;64015;49.392;15.582;2022-12-18T00:38:36;96994.38;;;-9.96;100.00
75438;BME280;64015;49.392;15.582;2022-12-18T00:41:03;96992.72;;;-9.97;100.00
75438;BME280;64015;49.392;15.582;2022-12-18T00:43:29;96990.53;;;-10.01;100.00
75438;BME280;64015;49.392;15.582;2022-12-18T00:45:54;96990.13;;;-10.08;98.36
75438;BME280;64015;49.392;15.582;2022-12-18T00:48:20;96977.22;;;-10.29;96.84
75438;BME280;64015;49.392;15.582;2022-12-18T00:50:50;96980.09;;;-10.33;99.03
75438;BME280;64015;49.392;15.582;2022-12-18T00:53:16;96994.69;;;-10.35;99.41
75438;BME280;64015;49.392;15.582;2022-12-18T00:55:42;96990.94;;;-10.42;100.00
75438;BME280;64015;49.392;15.582;2022-12-18T00:58:09;97001.03;;;-10.41;98.72
75438;BME280;64015;49.392;15.582;2022-12-18T01:00:35;96997.50;;;-10.51;95.43
75438;BME280;64015;49.392;15.582;2022-12-18T01:03:01;97010.88;;;-10.60;95.91
75438;BME280;64015;49.392;15.582;2022-12-18T01:05:28;97003.69;;;-10.66;96.11
75438;BME280;64015;49.392;15.582;2022-12-18T01:07:55;97010.19;;;-10.75;95.33
75438;BME280;64015;49.392;15.582;2022-12-18T01:10:21;97005.53;;;-10.81;93.97
75438;BME280;64015;49.392;15.582;2022-12-18T01:12:46;97005.03;;;-10.86;93.98
75438;BME280;64015;49.392;15.582;2022-12-18T01:15:13;97019.63;;;-10.88;94.65
75438;BME280;64015;49.392;15.582;2022-12-18T01:17:39;97033.69;;;-10.95;93.12
75438;BME280;64015;49.392;15.582;2022-12-18T01:20:06;97031.47;;;-11.12;93.97
75438;BME280;64015;49.392;15.582;2022-12-18T01:22:32;97019.66;;;-11.26;94.22
75438;BME280;64015;49.392;15.582;2022-12-18T01:24:57;97034.41;;;-11.18;94.26
75438;BME280;64015;49.392;15.582;2022-12-18T01:27:23;97040.75;;;-11.24;92.58
75438;BME280;64015;49.392;15.582;2022-12-18T01:29:49;97034.31;;;-11.29;90.42
75438;BME280;64015;49.392;15.582;2022-12-18T01:32:15;97030.34;;;-11.34;89.77
75438;BME280;64015;49.392;15.582;2022-12-18T01:34:40;97017.81;;;-11.49;89.64
75438;BME280;64015;49.392;15.582;2022-12-18T01:37:06;97038.38;;;-11.52;88.61
75438;BME280;64015;49.392;15.582;2022-12-18T01:39:32;97038.16;;;-11.62;89.65
75438;BME280;64015;49.392;15.582;2022-12-18T01:41:59;97045.97;;;-11.65;91.40
75438;BME280;64015;49.392;15.582;2022-12-18T01:47:53;97054.66;;;-11.55;91.77
75438;BME280;64015;49.392;15.582;2022-12-18T01:50:21;97063.19;;;-11.56;92.81
75438;BME280;64015;49.392;15.582;2022-12-18T01:52:51;97060.88;;;-11.59;92.68
75438;BME280;64015;49.392;15.582;2022-12-18T01:55:22;97060.56;;;-11.54;92.09
75438;BME280;64015;49.392;15.582;2022-12-18T01:57:52;97061.19;;;-11.51;91.89
75438;BME280;64015;49.392;15.582;2022-12-18T02:00:19;97053.84;;;-11.55;90.75
75438;BME280;64015;49.392;15.582;2022-12-18T02:02:46;97063.66;;;-11.49;88.86
75438;BME280;64015;49.392;15.582;2022-12-18T02:05:15;97067.28;;;-11.53;88.28
75438;BME280;64015;49.392;15.582;2022-12-18T02:11:00;97066.16;;;-11.62;89.36
75438;BME280;64015;49.392;15.582;2022-12-18T02:19:21;97076.75;;;-11.68;87.49
75438;BME280;64015;49.392;15.582;2022-12-18T02:26:58;97089.72;;;-11.85;88.08
75438;BME280;64015;49.392;15.582;2022-12-18T02:29:38;97081.09;;;-11.83;89.04
75438;BME280;64015;49.392;15.582;2022-12-18T02:32:09;97093.09;;;-11.72;90.85
75438;BME280;64015;49.392;15.582;2022-12-18T02:34:38;97092.63;;;-11.64;91.51
75438;BME280;64015;49.392;15.582;2022-12-18T02:37:09;97099.38;;;-11.51;94.90
75438;BME280;64015;49.392;15.582;2022-12-18T02:39:38;97092.16;;;-11.44;94.71
75438;BME280;64015;49.392;15.582;2022-12-18T02:42:05;97081.97;;;-11.44;94.16
75438;BME280;64015;49.392;15.582;2022-12-18T02:44:44;97081.38;;;-11.35;89.12
75438;BME280;64015;49.392;15.582;2022-12-18T02:47:12;97094.44;;;-11.14;90.07
75438;BME280;64015;49.392;15.582;2022-12-18T02:52:45;97083.69;;;-11.45;92.34
75438;BME280;64015;49.392;15.582;2022-12-18T02:55:32;97088.69;;;-11.43;93.77
75438;BME280;64015;49.392;15.582;2022-12-18T02:58:07;97090.69;;;-11.48;95.54
75438;BME280;64015;49.392;15.582;2022-12-18T03:00:41;97095.91;;;-11.50;95.69
75438;BME280;64015;49.392;15.582;2022-12-18T03:03:18;97103.66;;;-11.51;97.26
75438;BME280;64015;49.392;15.582;2022-12-18T03:06:05;97110.97;;;-11.47;93.16
75438;BME280;64015;49.392;15.582;2022-12-18T03:08:37;97109.56;;;-11.38;91.32
75438;BME280;64015;49.392;15.582;2022-12-18T03:11:07;97110.78;;;-11.44;91.67
75438;BME280;64015;49.392;15.582;2022-12-18T03:13:48;97105.06;;;-11.60;94.18
75438;BME280;64015;49.392;15.582;2022-12-18T03:16:24;97101.03;;;-11.89;98.89
75438;BME280;64015;49.392;15.582;2022-12-18T03:18:55;97097.34;;;-11.85;99.47
75438;BME280;64015;49.392;15.582;2022-12-18T03:21:28;97107.66;;;-11.74;99.23
75438;BME280;64015;49.392;15.582;2022-12-18T03:23:56;97105.09;;;-11.74;97.10
75438;BME280;64015;49.392;15.582;2022-12-18T03:26:25;97101.41;;;-11.95;98.63
75438;BME280;64015;49.392;15.582;2022-12-18T03:29:12;97113.19;;;-11.94;98.52
75438;BME280;64015;49.392;15.582;2022-12-18T03:31:42;97116.03;;;-11.99;96.38
75438;BME280;64015;49.392;15.582;2022-12-18T03:34:16;97114.81;;;-12.06;94.71
75438;BME280;64015;49.392;15.582;2022-12-18T03:36:43;97116.31;;;-12.03;94.10
75438;BME280;64015;49.392;15.582;2022-12-18T03:39:09;97122.94;;;-12.01;94.47
75438;BME280;64015;49.392;15.582;2022-12-18T03:45:02;97120.00;;;-12.22;96.67
75438;BME280;64015;49.392;15.582;2022-12-18T03:47:29;97120.56;;;-12.31;97.05
75438;BME280;64015;49.392;15.582;2022-12-18T03:50:10;97128.22;;;-12.45;95.55
75438;BME280;64015;49.392;15.582;2022-12-18T03:52:59;97129.16;;;-12.60;97.88
75438;BME280;64015;49.392;15.582;2022-12-18T03:55:28;97130.41;;;-12.81;100.00
75438;BME280;64015;49.392;15.582;2022-12-18T03:57:56;97123.88;;;-12.86;100.00
75438;BME280;64015;49.392;15.582;2022-12-18T04:00:25;97121.13;;;-12.97;100.00
75438;BME280;64015;49.392;15.582;2022-12-18T04:02:52;97135.84;;;-13.02;100.00
75438;BME280;64015;49.392;15.582;2022-12-18T04:05:22;97137.28;;;-13.12;100.00
75438;BME280;64015;49.392;15.582;2022-12-18T04:07:50;97132.75;;;-13.21;100.00
75438;BME280;64015;49.392;15.582;2022-12-18T04:10:18;97140.72;;;-13.27;100.00
75438;BME280;64015;49.392;15.582;2022-12-18T04:12:44;97144.41;;;-13.33;100.00
75438;BME280;64015;49.392;15.582;2022-12-18T04:15:11;97151.63;;;-13.25;100.00
75438;BME280;64015;49.392;15.582;2022-12-18T04:17:37;97149.44;;;-13.17;100.00
75438;BME280;64015;49.392;15.582;2022-12-18T04:20:04;97157.69;;;-13.28;100.00
75438;BME280;64015;49.392;15.582;2022-12-18T04:22:29;97150.00;;;-13.42;99.33
75438;BME280;64015;49.392;15.582;2022-12-18T04:24:55;97142.88;;;-13.65;100.00
75438;BME280;64015;49.392;15.582;2022-12-18T04:27:21;97154.34;;;-13.74;100.00
75438;BME280;64015;49.392;15.582;2022-12-18T04:29:47;97151.63;;;-13.71;100.00
75438;BME280;64015;49.392;15.582;2022-12-18T04:32:12;97156.16;;;-13.76;100.00
75438;BME280;64015;49.392;15.582;2022-12-18T04:34:38;97151.41;;;-13.82;100.00
75438;BME280;64015;49.392;15.582;2022-12-18T04:37:04;97163.59;;;-13.73;100.00
75438;BME280;64015;49.392;15.582;2022-12-18T04:39:30;97144.84;;;-13.70;100.00
75438;BME280;64015;49.392;15.582;2022-12-18T04:41:55;97166.59;;;-13.66;99.28
75438;BME280;64015;49.392;15.582;2022-12-18T04:44:21;97159.44;;;-13.74;98.61
75438;BME280;64015;49.392;15.582;2022-12-18T04:46:46;97166.84;;;-13.71;96.94
75438;BME280;64015;49.392;15.582;2022-12-18T04:49:12;97169.38;;;-13.71;95.89
75438;BME280;64015;49.392;15.582;2022-12-18T04:51:38;97170.16;;;-13.84;95.34
75438;BME280;64015;49.392;15.582;2022-12-18T04:54:04;97170.88;;;-13.98;93.60
75438;BME280;64015;49.392;15.582;2022-12-18T04:56:31;97177.78;;;-14.00;92.71
75438;BME280;64015;49.392;15.582;2022-12-18T04:58:57;97177.28;;;-13.91;91.08
75438;BME280;64015;49.392;15.582;2022-12-18T05:01:23;97182.03;;;-14.01;90.72
75438;BME280;64015;49.392;15.582;2022-12-18T05:03:50;97181.69;;;-14.10;91.08
75438;BME280;64015;49.392;15.582;2022-12-18T05:06:15;97187.81;;;-14.14;91.55
75438;BME280;64015;49.392;15.582;2022-12-18T05:08:41;97184.22;;;-14.10;91.62
75438;BME280;64015;49.392;15.582;2022-12-18T05:11:09;97194.84;;;-14.04;92.92
75438;BME280;64015;49.392;15.582;2022-12-18T05:13:43;97191.16;;;-14.14;92.38
75438;BME280;64015;49.392;15.582;2022-12-18T05:16:09;97193.97;;;-14.18;94.95
75438;BME280;64015;49.392;15.582;2022-12-18T05:18:36;97194.44;;;-14.27;95.93
75438;BME280;64015;49.392;15.582;2022-12-18T05:21:02;97193.91;;;-14.34;95.41
75438;BME280;64015;49.392;15.582;2022-12-18T05:23:30;97191.16;;;-14.29;93.08
75438;BME280;64015;49.392;15.582;2022-12-18T05:25:58;97177.75;;;-14.31;90.18
75438;BME280;64015;49.392;15.582;2022-12-18T05:28:26;97179.00;;;-14.39;90.08
75438;BME280;64015;49.392;15.582;2022-12-18T05:30:54;97179.47;;;-14.48;90.95
75438;BME280;64015;49.392;15.582;2022-12-18T05:33:23;97181.94;;;-14.46;91.45
75438;BME280;64015;49.392;15.582;2022-12-18T05:35:53;97188.22;;;-14.38;88.33
75438;BME280;64015;49.392;15.582;2022-12-18T05:38:21;97195.44;;;-14.46;87.53
75438;BME280;64015;49.392;15.582;2022-12-18T05:40:48;97190.38;;;-14.46;89.13
75438;BME280;64015;49.392;15.582;2022-12-18T05:43:14;97174.63;;;-14.52;93.02
75438;BME280;64015;49.392;15.582;2022-12-18T05:45:40;97201.06;;;-14.41;94.98
75438;BME280;64015;49.392;15.582;2022-12-18T05:48:07;97212.00;;;-14.24;96.31
75438;BME280;64015;49.392;15.582;2022-12-18T05:50:37;97213.00;;;-14.11;97.54
75438;BME280;64015;49.392;15.582;2022-12-18T05:53:04;97210.13;;;-14.05;100.00
75438;BME280;64015;49.392;15.582;2022-12-18T05:55:34;97192.47;;;-14.07;100.00
75438;BME280;64015;49.392;15.582;2022-12-18T05:58:01;97206.63;;;-13.87;98.70
75438;BME280;64015;49.392;15.582;2022-12-18T06:00:26;97215.53;;;-13.64;95.11
75438;BME280;64015;49.392;15.582;2022-12-18T06:02:52;97228.84;;;-13.61;94.11
75438;BME280;64015;49.392;15.582;2022-12-18T06:05:18;97228.47;;;-13.53;94.04
75438;BME280;64015;49.392;15.582;2022-12-18T06:07:44;97220.66;;;-13.50;92.22
75438;BME280;64015;49.392;15.582;2022-12-18T06:10:09;97231.28;;;-13.43;90.76
75438;BME280;64015;49.392;15.582;2022-12-18T06:12:35;97230.16;;;-13.38;90.54
75438;BME280;64015;49.392;15.582;2022-12-18T06:15:01;97227.53;;;-13.36;90.58
75438;BME280;64015;49.392;15.582;2022-12-18T06:17:31;97246.75;;;-13.32;91.04
75438;BME280;64015;49.392;15.582;2022-12-18T06:19:56;97239.16;;;-13.48;93.16
75438;BME280;64015;49.392;15.582;2022-12-18T06:22:22;97258.31;;;-13.42;93.41
75438;BME280;64015;49.392;15.582;2022-12-18T06:24:48;97266.25;;;-13.48;95.25
75438;BME280;64015;49.392;15.582;2022-12-18T06:27:14;97267.41;;;-13.70;96.72
75438;BME280;64015;49.392;15.582;2022-12-18T06:29:39;97268.63;;;-13.77;97.32
75438;BME280;64015;49.392;15.582;2022-12-18T06:32:05;97276.84;;;-13.72;97.58
75438;BME280;64015;49.392;15.582;2022-12-18T06:34:31;97273.63;;;-13.91;100.00
75438;BME280;64015;49.392;15.582;2022-12-18T06:36:58;97275.00;;;-13.85;100.00
75438;BME280;64015;49.392;15.582;2022-12-18T06:39:24;97268.63;;;-13.77;100.00
75438;BME280;64015;49.392;15.582;2022-12-18T06:41:50;97276.16;;;-13.75;100.00
75438;BME280;64015;49.392;15.582;2022-12-18T06:44:15;97274.44;;;-13.75;100.00
75438;BME280;64015;49.392;15.582;2022-12-18T06:46:41;97272.47;;;-13.70;100.00
75438;BME280;64015;49.392;15.582;2022-12-18T06:49:07;97263.41;;;-13.74;100.00
75438;BME280;64015;49.392;15.582;2022-12-18T06:51:34;97279.28;;;-13.54;100.00
75438;BME280;64015;49.392;15.582;2022-12-18T06:54:00;97271.69;;;-13.54;100.00
75438;BME280;64015;49.392;15.582;2022-12-18T06:56:26;97278.06;;;-13.47;100.00
75438;BME280;64015;49.392;15.582;2022-12-18T06:58:52;97280.09;;;-13.54;100.00
75438;BME280;64015;49.392;15.582;2022-12-18T07:01:18;97284.84;;;-13.64;100.00
75438;BME280;64015;49.392;15.582;2022-12-18T07:03:43;97297.69;;;-13.67;100.00
75438;BME280;64015;49.392;15.582;2022-12-18T07:06:18;97299.88;;;-13.61;100.00
75438;BME280;64015;49.392;15.582;2022-12-18T07:08:45;97299.50;;;-13.53;100.00
75438;BME280;64015;49.392;15.582;2022-12-18T07:11:15;97304.47;;;-13.51;100.00
75438;BME280;64015;49.392;15.582;2022-12-18T07:13:40;97311.94;;;-13.48;100.00
75438;BME280;64015;49.392;15.582;2022-12-18T07:16:11;97321.03;;;-13.44;100.00
75438;BME280;64015;49.392;15.582;2022-12-18T07:18:37;97314.53;;;-13.50;90.79
75438;BME280;64015;49.392;15.582;2022-12-18T07:21:08;97330.09;;;-13.72;87.23
75438;BME280;64015;49.392;15.582;2022-12-18T07:23:35;97323.88;;;-13.99;86.62
75438;BME280;64015;49.392;15.582;2022-12-18T07:26:12;97332.31;;;-13.99;86.90
75438;BME280;64015;49.392;15.582;2022-12-18T07:28:39;97342.97;;;-13.92;86.38
75438;BME280;64015;49.392;15.582;2022-12-18T07:31:14;97334.97;;;-13.84;87.59
75438;BME280;64015;49.392;15.582;2022-12-18T07:33:41;97325.06;;;-13.89;87.17
75438;BME280;64015;49.392;15.582;2022-12-18T07:36:07;97348.75;;;-13.73;87.59
75438;BME280;64015;49.392;15.582;2022-12-18T07:38:35;97354.50;;;-13.53;86.31
75438;BME280;64015;49.392;15.582;2022-12-18T07:41:07;97349.44;;;-13.38;84.91
75438;BME280;64015;49.392;15.582;2022-12-18T07:43:33;97344.19;;;-13.19;84.11
75438;BME280;64015;49.392;15.582;2022-12-18T07:45:59;97345.94;;;-13.05;84.68
75438;BME280;64015;49.392;15.582;2022-12-18T07:48:24;97328.28;;;-13.07;84.42
75438;BME280;64015;49.392;15.582;2022-12-18T07:50:50;97349.38;;;-12.91;84.85
75438;BME280;64015;49.392;15.582;2022-12-18T07:53:16;97359.84;;;-12.81;84.87
75438;BME280;64015;49.392;15.582;2022-12-18T07:55:42;97352.53;;;-12.71;85.01
75438;BME280;64015;49.392;15.582;2022-12-18T07:58:09;97354.56;;;-12.62;84.43
75438;BME280;64015;49.392;15.582;2022-12-18T08:00:35;97353.97;;;-12.67;83.98
75438;BME280;64015;49.392;15.582;2022-12-18T08:03:00;97369.03;;;-12.94;85.45
75438;BME280;64015;49.392;15.582;2022-12-18T08:05:27;97369.56;;;-12.73;86.28
75438;BME280;64015;49.392;15.582;2022-12-18T08:07:54;97366.16;;;-12.42;85.54
75438;BME280;64015;49.392;15.582;2022-12-18T08:10:21;97362.06;;;-12.45;84.01
75438;BME280;64015;49.392;15.582;2022-12-18T08:12:51;97348.78;;;-12.50;84.50
75438;BME280;64015;49.392;15.582;2022-12-18T08:15:17;97358.00;;;-12.33;84.96
75438;BME280;64015;49.392;15.582;2022-12-18T08:17:42;97367.94;;;-12.15;84.82
75438;BME280;64015;49.392;15.582;2022-12-18T08:20:08;97377.88;;;-11.96;87.10
75438;BME280;64015;49.392;15.582;2022-12-18T08:22:35;97384.84;;;-11.85;84.95
75438;BME280;64015;49.392;15.582;2022-12-18T08:25:02;97388.22;;;-11.71;84.67
75438;BME280;64015;49.392;15.582;2022-12-18T08:27:27;97381.91;;;-11.65;83.72
75438;BME280;64015;49.392;15.582;2022-12-18T08:29:53;97381.38;;;-11.42;84.45
75438;BME280;64015;49.392;15.582;2022-12-18T08:32:19;97391.88;;;-11.19;84.41
75438;BME280;64015;49.392;15.582;2022-12-18T08:34:44;97393.56;;;-11.33;81.17
75438;BME280;64015;49.392;15.582;2022-12-18T08:37:10;97378.63;;;-11.24;83.80
75438;BME280;64015;49.392;15.582;2022-12-18T08:39:36;97382.00;;;-11.38;84.17
75438;BME280;64015;49.392;15.582;2022-12-18T08:42:02;97384.63;;;-11.40;82.58
75438;BME280;64015;49.392;15.582;2022-12-18T08:44:46;97383.72;;;-11.24;84.85
75438;BME280;64015;49.392;15.582;2022-12-18T08:47:12;97376.56;;;-11.32;85.35
75438;BME280;64015;49.392;15.582;2022-12-18T08:49:37;97384.09;;;-11.30;82.82
75438;BME280;64015;49.392;15.582;2022-12-18T08:52:03;97374.28;;;-10.96;83.54
75438;BME280;64015;49.392;15.582;2022-12-18T08:54:29;97384.16;;;-10.77;82.96
75438;BME280;64015;49.392;15.582;2022-12-18T08:56:55;97394.44;;;-10.51;82.54
75438;BME280;64015;49.392;15.582;2022-12-18T08:59:21;97384.16;;;-10.37;83.21
75438;BME280;64015;49.392;15.582;2022-12-18T09:01:47;97398.47;;;-10.09;82.15
75438;BME280;64015;49.392;15.582;2022-12-18T09:04:13;97399.09;;;-10.06;84.07
75438;BME280;64015;49.392;15.582;2022-12-18T09:06:39;97393.91;;;-10.04;84.95
75438;BME280;64015;49.392;15.582;2022-12-18T09:09:05;97394.44;;;-9.87;85.76
75438;BME280;64015;49.392;15.582;2022-12-18T09:11:32;97397.41;;;-9.67;86.09
75438;BME280;64015;49.392;15.582;2022-12-18T09:14:00;97385.84;;;-9.60;85.37
75438;BME280;64015;49.392;15.582;2022-12-18T09:16:27;97385.31;;;-9.40;84.26
75438;BME280;64015;49.392;15.582;2022-12-18T09:18:55;97381.94;;;-9.28;84.18
75438;BME280;64015;49.392;15.582;2022-12-18T09:21:26;97394.66;;;-9.02;83.42
75438;BME280;64015;49.392;15.582;2022-12-18T09:23:53;97395.22;;;-8.86;79.68
75438;BME280;64015;49.392;15.582;2022-12-18T09:26:23;97382.97;;;-8.70;79.64
75438;BME280;64015;49.392;15.582;2022-12-18T09:28:51;97381.00;;;-8.54;78.19
75438;BME280;64015;49.392;15.582;2022-12-18T09:31:20;97371.88;;;-8.58;78.75
75438;BME280;64015;49.392;15.582;2022-12-18T09:33:46;97383.38;;;-8.40;78.53
75438;BME280;64015;49.392;15.582;2022-12-18T09:36:15;97382.13;;;-8.34;80.32
75438;BME280;64015;49.392;15.582;2022-12-18T09:38:41;97379.69;;;-8.13;81.24
75438;BME280;64015;49.392;15.582;2022-12-18T09:44:26;97379.78;;;-7.91;81.98
75438;BME280;64015;49.392;15.582;2022-12-18T09:47:07;97369.63;;;-7.93;81.66
75438;BME280;64015;49.392;15.582;2022-12-18T09:49:39;97373.84;;;-7.80;81.35
75438;BME280;64015;49.392;15.582;2022-12-18T09:52:14;97376.06;;;-7.76;83.69
75438;BME280;64015;49.392;15.582;2022-12-18T09:54:42;97365.94;;;-7.77;84.58
75438;BME280;64015;49.392;15.582;2022-12-18T09:57:18;97368.88;;;-7.48;83.90
75438;BME280;64015;49.392;15.582;2022-12-18T09:59:50;97356.16;;;-7.39;83.87
75438;BME280;64015;49.392;15.582;2022-12-18T10:02:23;97350.94;;;-7.48;84.48
75438;BME280;64015;49.392;15.582;2022-12-18T10:05:12;97350.56;;;-7.10;84.37
75438;BME280;64015;49.392;15.582;2022-12-18T10:08:08;97358.13;;;-6.98;83.33
75438;BME280;64015;49.392;15.582;2022-12-18T10:10:42;97349.81;;;-6.79;83.98
75438;BME280;64015;49.392;15.582;2022-12-18T10:14:06;97348.44;;;-6.51;85.71
75438;BME280;64015;49.392;15.582;2022-12-18T10:16:59;97349.72;;;-6.25;85.05
75438;BME280;64015;49.392;15.582;2022-12-18T10:20:20;97340.56;;;-6.18;84.47
75438;BME280;64015;49.392;15.582;2022-12-18T10:22:40;97338.88;;;-6.28;85.60
75438;BME280;64015;49.392;15.582;2022-12-18T10:25:26;97329.38;;;-6.17;84.42
75438;BME280;64015;49.392;15.582;2022-12-18T10:27:58;97342.44;;;-6.20;83.43
75438;BME280;64015;49.392;15.582;2022-12-18T10:30:26;97342.44;;;-6.20;84.82
75438;BME280;64015;49.392;15.582;2022-12-18T10:32:52;97344.47;;;-6.03;84.15
75438;BME280;64015;49.392;15.582;2022-12-18T10:35:24;97348.91;;;-5.84;83.37
75438;BME280;64015;49.392;15.582;2022-12-18T10:38:06;97350.47;;;-5.92;83.94
75438;BME280;64015;49.392;15.582;2022-12-18T10:40:57;97354.50;;;-5.69;83.12
75438;BME280;64015;49.392;15.582;2022-12-18T10:46:02;97354.16;;;-5.55;83.09
75438;BME280;64015;49.392;15.582;2022-12-18T10:48:30;97358.44;;;-5.35;82.82
75438;BME280;64015;49.392;15.582;2022-12-18T10:50:56;97354.84;;;-5.22;82.80
75438;BME280;64015;49.392;15.582;2022-12-18T10:53:25;97357.97;;;-5.29;82.34
75438;BME280;64015;49.392;15.582;2022-12-18T10:55:56;97356.69;;;-5.65;83.77
75438;BME280;64015;49.392;15.582;2022-12-18T10:58:30;97358.44;;;-5.95;85.64
75438;BME280;64015;49.392;15.582;2022-12-18T11:06:24;97358.56;;;-5.97;86.73
75438;BME280;64015;49.392;15.582;2022-12-18T11:09:22;97354.38;;;-5.68;86.79
75438;BME280;64015;49.392;15.582;2022-12-18T11:11:55;97338.84;;;-5.66;85.70
75438;BME280;64015;49.392;15.582;2022-12-18T11:14:33;97334.13;;;-5.61;85.71
75438;BME280;64015;49.392;15.582;2022-12-18T11:17:00;97335.22;;;-5.54;86.15
75438;BME280;64015;49.392;15.582;2022-12-18T11:19:37;97327.63;;;-5.25;85.45
75438;BME280;64015;49.392;15.582;2022-12-18T11:22:23;97326.94;;;-5.27;84.47
75438;BME280;64015;49.392;15.582;2022-12-18T11:25:00;97331.63;;;-5.02;84.43
75438;BME280;64015;49.392;15.582;2022-12-18T11:27:28;97324.06;;;-4.94;83.25
75438;BME280;64015;49.392;15.582;2022-12-18T11:30:24;97310.78;;;-4.89;82.73
75438;BME280;64015;49.392;15.582;2022-12-18T11:38:39;97295.63;;;-4.92;83.17
75438;BME280;64015;49.392;15.582;2022-12-18T11:43:56;97295.78;;;-4.84;82.49
75438;BME280;64015;49.392;15.582;2022-12-18T11:46:36;97286.81;;;-4.80;82.84
75438;BME280;64015;49.392;15.582;2022-12-18T11:49:11;97282.78;;;-4.73;83.13
75438;BME280;64015;49.392;15.582;2022-12-18T11:51:49;97277.22;;;-4.78;82.84
75438;BME280;64015;49.392;15.582;2022-12-18T11:54:17;97287.78;;;-4.81;82.05
75438;BME280;64015;49.392;15.582;2022-12-18T11:56:49;97286.84;;;-4.61;82.03
75438;BME280;64015;49.392;15.582;2022-12-18T12:02:12;97280.75;;;-4.60;81.79
75438;BME280;64015;49.392;15.582;2022-12-18T12:04:59;97292.47;;;-5.05;84.14
75438;BME280;64015;49.392;15.582;2022-12-18T12:12:59;97290.91;;;-4.77;82.69
75438;BME280;64015;49.392;15.582;2022-12-18T12:18:35;97300.63;;;-4.81;81.10
75438;BME280;64015;49.392;15.582;2022-12-18T12:23:55;97295.34;;;-4.89;81.80
75438;BME280;64015;49.392;15.582;2022-12-18T12:26:33;97294.66;;;-4.91;82.16
75438;BME280;64015;49.392;15.582;2022-12-18T12:34:26;97284.38;;;-4.81;81.92
75438;BME280;64015;49.392;15.582;2022-12-18T12:39:38;97282.94;;;-4.65;81.00
75438;BME280;64015;49.392;15.582;2022-12-18T12:42:12;97287.53;;;-4.59;80.12
75438;BME280;64015;49.392;15.582;2022-12-18T12:45:01;97295.25;;;-4.68;80.65
75438;BME280;64015;49.392;15.582;2022-12-18T12:47:37;97284.09;;;-4.98;81.29
75438;BME280;64015;49.392;15.582;2022-12-18T12:50:12;97289.63;;;-5.21;82.58
75438;BME280;64015;49.392;15.582;2022-12-18T12:53:37;97249.75;;;-5.37;83.33
75438;BME280;64015;49.392;15.582;2022-12-18T12:56:05;97286.94;;;-5.10;82.36
75438;BME280;64015;49.392;15.582;2022-12-18T12:58:39;97301.25;;;-5.17;82.94
75438;BME280;64015;49.392;15.582;2022-12-18T13:01:15;97296.59;;;-5.43;84.91
75438;BME280;64015;49.392;15.582;2022-12-18T13:04:08;97307.16;;;-5.36;85.32
75438;BME280;64015;49.392;15.582;2022-12-18T13:06:45;97322.34;;;-5.23;85.32
75438;BME280;64015;49.392;15.582;2022-12-18T13:09:13;97321.78;;;-5.27;85.09
75438;BME280;64015;49.392;15.582;2022-12-18T13:11:41;97326.63;;;-5.43;86.60
75438;BME280;64015;49.392;15.582;2022-12-18T13:14:34;97339.34;;;-5.42;85.93
75438;BME280;64015;49.392;15.582;2022-12-18T13:19:49;97333.28;;;-5.41;85.13
75438;BME280;64015;49.392;15.582;2022-12-18T13:22:29;97327.84;;;-5.47;85.13
75438;BME280;64015;49.392;15.582;2022-12-18T13:24:55;97329.31;;;-5.45;85.02
75438;BME280;64015;49.392;15.582;2022-12-18T13:30:44;97330.41;;;-5.47;86.46
75438;BME280;64015;49.392;15.582;2022-12-18T13:36:09;97335.97;;;-5.42;85.66
75438;BME280;64015;49.392;15.582;2022-12-18T13:38:39;97332.78;;;-5.55;85.71
75438;BME280;64015;49.392;15.582;2022-12-18T13:46:43;97346.78;;;-5.69;85.31
75438;BME280;64015;49.392;15.582;2022-12-18T13:51:43;97361.91;;;-5.76;85.42
75438;BME280;64015;49.392;15.582;2022-12-18T13:54:30;97365.53;;;-5.88;84.37
75438;BME280;64015;49.392;15.582;2022-12-18T13:56:58;97356.88;;;-6.08;85.54
75438;BME280;64015;49.392;15.582;2022-12-18T13:59:25;97364.81;;;-6.11;86.36
75438;BME280;64015;49.392;15.582;2022-12-18T14:04:23;97364.19;;;-6.24;86.20
75438;BME280;64015;49.392;15.582;2022-12-18T14:06:52;97372.84;;;-6.25;87.25
75438;BME280;64015;49.392;15.582;2022-12-18T14:09:25;97370.75;;;-6.31;86.82
75438;BME280;64015;49.392;15.582;2022-12-18T14:11:51;97375.16;;;-6.22;86.39
75438;BME280;64015;49.392;15.582;2022-12-18T14:14:18;97368.38;;;-6.23;85.75
75438;BME280;64015;49.392;15.582;2022-12-18T14:16:46;97364.22;;;-6.35;85.19
75438;BME280;64015;49.392;15.582;2022-12-18T14:19:16;97361.16;;;-6.50;84.76
75438;BME280;64015;49.392;15.582;2022-12-18T14:21:47;97353.47;;;-6.61;85.73
75438;BME280;64015;49.392;15.582;2022-12-18T14:24:19;97355.59;;;-6.66;87.01